Flight Track Log - Related Links

Times and Time Zones

All times are in EDT time to prevent confusion due to time zone crossing. See the CLH927 flight status page for this flight to view local times or setup timezone preferences in your user account.

Time Position Orientation Groundspeed Altitude Reporting Facility
EDT Latitude Longitude Course Direction KTS MPH feet Rate Location/Type
Thu 02:50:15 AM 51.5010 0.0870 102° East  Level Estimated
Thu 02:51:15 AM 51.4841 0.2136 102° East  Level Estimated
Thu 02:52:15 AM 51.4669 0.3402 102° East  Level Estimated
Thu 02:53:15 AM 51.4497 0.4667 102° East  Level Estimated
Thu 02:54:15 AM 51.4323 0.5930 103° East  Level Estimated
Thu 02:55:15 AM 51.4147 0.7193 103° East  Level Estimated
Thu 02:56:15 AM 51.3971 0.8455 103° East  Level Estimated
Thu 02:57:15 AM 51.3793 0.9716 103° East  Level Estimated
Thu 02:58:15 AM 51.3613 1.0975 103° East  Level Estimated
Thu 02:59:15 AM 51.3433 1.2234 103° East  Level Estimated
Thu 03:00:15 AM 51.3250 1.3492 103° East  Level Estimated
Thu 03:01:15 AM 51.3067 1.4749 103° East  Level Estimated
Thu 03:02:15 AM 51.2882 1.6005 103° East  Level Estimated
Thu 03:03:15 AM 51.2696 1.7259 103° East  Level Estimated
Thu 03:04:15 AM 51.2509 1.8513 103° East  Level Estimated
Thu 03:05:15 AM 51.2320 1.9766 104° East  Level Estimated
Thu 03:06:15 AM 51.2130 2.1018 104° East  Level Estimated
Thu 03:07:15 AM 51.1938 2.2268 104° East  Level Estimated
Thu 03:08:15 AM 51.1745 2.3518 104° East  Level Estimated
Thu 03:09:15 AM 51.1551 2.4767 104° East  Level Estimated
Thu 03:10:15 AM 51.1356 2.6014 104° East  Level Estimated
Thu 03:11:15 AM 51.1159 2.7261 104° East  Level Estimated
Thu 03:12:15 AM 51.0961 2.8506 104° East  Level Estimated
Thu 03:13:15 AM 51.0761 2.9751 104° East  Level Estimated
Thu 03:14:15 AM 51.0561 3.0994 104° East  Level Estimated
Thu 03:15:15 AM 51.0359 3.2236 105° East  Level Estimated
Thu 03:16:15 AM 51.0155 3.3477 105° East  Level Estimated
Thu 03:17:15 AM 50.9950 3.4717 105° East  Level Estimated
Thu 03:18:15 AM 50.9744 3.5956 105° East  Level Estimated
Thu 03:19:15 AM 50.9537 3.7194 105° East  Level Estimated
Thu 03:20:15 AM 50.9328 3.8431 105° East  Level Estimated
Thu 03:21:15 AM 50.9118 3.9666 105° East  Level Estimated
Thu 03:22:15 AM 50.8907 4.0901 105° East  Level Estimated
Thu 03:23:15 AM 50.8694 4.2134 105° East  Level Estimated
Thu 03:24:15 AM 50.8481 4.3366 105° East  Level Estimated
Thu 03:25:15 AM 50.8265 4.4597 106° East  Level Estimated
Thu 03:26:15 AM 50.8049 4.5827 106° East  Level Estimated
Thu 03:27:15 AM 50.7831 4.7056 106° East  Level Estimated
Thu 03:28:15 AM 50.7612 4.8284 106° East  Level Estimated
Thu 03:29:15 AM 50.7392 4.9510 106° East  Level Estimated
Thu 03:30:15 AM 50.7170 5.0736 106° East  Level Estimated
Thu 03:31:15 AM 50.6948 5.1960 106° East  Level Estimated
Thu 03:32:15 AM 50.6723 5.3183 106° East  Level Estimated
Thu 03:33:15 AM 50.6498 5.4405 106° East  Level Estimated
Thu 03:34:15 AM 50.6271 5.5626 106° East  Level Estimated
Thu 03:35:15 AM 50.6043 5.6845 106° East  Level Estimated
Thu 03:36:15 AM 50.5814 5.8063 107° East  Level Estimated
Thu 03:37:15 AM 50.5583 5.9281 107° East  Level Estimated
Thu 03:38:15 AM 50.5352 6.0497 107° East  Level Estimated
Thu 03:39:15 AM 50.5119 6.1711 107° East  Level Estimated
Thu 03:40:15 AM 50.4884 6.2925 107° East  Level Estimated
Thu 03:41:15 AM 50.4649 6.4137 107° East  Level Estimated
Thu 03:42:15 AM 50.4412 6.5348 107° East  Level Estimated
Thu 03:43:15 AM 50.4174 6.6558 107° East  Level Estimated
Thu 03:44:15 AM 50.3935 6.7767 107° East  Level Estimated
Thu 03:45:15 AM 50.3694 6.8974 107° East  Level Estimated
Thu 03:46:15 AM 50.3452 7.0181 107° East  Level Estimated
Thu 03:47:15 AM 50.3209 7.1386 108° East  Level Estimated
Thu 03:48:15 AM 50.2965 7.2590 108° East  Level Estimated
Thu 03:49:15 AM 50.2719 7.3792 108° East  Level Estimated
Thu 03:50:15 AM 50.2472 7.4993 108° East  Level Estimated
Thu 03:51:15 AM 50.2224 7.6193 108° East  Level Estimated
Thu 03:52:15 AM 50.1975 7.7392 108° East  Level Estimated
Thu 03:53:15 AM 50.1724 7.8590 108° East  Level Estimated
Thu 03:54:15 AM 50.1473 7.9786 108° East  Level Estimated
Thu 03:55:15 AM 50.1219 8.0981 108° East  Level Estimated
Thu 03:56:15 AM 50.0965 8.2175 108° East  Level Estimated
Thu 03:57:15 AM 50.0710 8.3368 109° East  Level Estimated
Thu 03:58:15 AM 50.0453 8.4559 109° East  Level Estimated
Thu 03:59:15 AM 50.0195 8.5749 289° West  Level Estimated
Thu 04:00:15 AM 50.0453 8.4559 109° East  Level Estimated
Thu 04:01:15 AM 50.0195 8.5749 289° West  Level Estimated
Thu 04:02:15 AM 50.0453 8.4559 109° East  Level Estimated
Thu 04:03:15 AM 50.0195 8.5749 289° West  Level Estimated
Thu 04:04:15 AM 50.0453 8.4559 109° East  Level Estimated
Thu 04:05:15 AM 50.0195 8.5749 289° West  Level Estimated
Thu 04:06:15 AM 50.0453 8.4559 109° East  Level Estimated
Thu 04:07:15 AM 50.0195 8.5749 289° West  Level Estimated
Thu 04:08:15 AM 50.0453 8.4559 109° East  Level Estimated
Thu 04:09:15 AM 50.0195 8.5749 109° East  Level Estimated

Login

Don't have an account? Register now (free) for customized features, flight alerts, and more!